createdAt,value
2022-10-31T00:01:39.410Z,15.68
2022-10-31T00:04:07.180Z,21.35
2022-10-31T00:06:34.130Z,27.30
2022-10-31T00:09:03.694Z,20.52
2022-10-31T00:11:30.916Z,20.40
2022-10-31T00:14:00.919Z,20.60
2022-10-31T00:16:29.168Z,17.70
2022-10-31T00:18:58.474Z,25.27
2022-10-31T00:21:25.855Z,23.23
2022-10-31T00:23:52.846Z,20.50
2022-10-31T00:26:20.153Z,19.35
2022-10-31T00:28:47.864Z,23.95
2022-10-31T00:31:15.355Z,22.25
2022-10-31T00:33:42.754Z,19.83
2022-10-31T00:36:14.292Z,26.02
2022-10-31T00:38:42.551Z,20.42
2022-10-31T00:41:10.668Z,27.00
2022-10-31T00:43:41.132Z,26.30
2022-10-31T00:46:07.988Z,23.60
2022-10-31T00:48:34.855Z,19.40
2022-10-31T00:51:01.854Z,19.38
2022-10-31T00:53:28.752Z,20.08
2022-10-31T00:55:55.698Z,15.52
2022-10-31T00:58:23.800Z,19.02
2022-10-31T01:00:56.211Z,21.60
2022-10-31T01:03:28.887Z,18.45
2022-10-31T01:06:15.153Z,17.73
2022-10-31T01:08:42.065Z,20.48
2022-10-31T01:11:20.872Z,20.13
2022-10-31T01:16:17.808Z,13.43
2022-10-31T01:18:45.495Z,17.75
2022-10-31T01:21:18.628Z,18.98
2022-10-31T01:23:45.769Z,19.33
2022-10-31T01:26:20.609Z,19.00
2022-10-31T01:29:08.915Z,37.30
2022-10-31T01:31:38.518Z,34.97
2022-10-31T01:34:06.345Z,28.48
2022-10-31T01:36:38.601Z,27.48
2022-10-31T01:39:08.223Z,31.75
2022-10-31T01:41:38.239Z,33.17
2022-10-31T01:44:25.357Z,32.80
2022-10-31T01:47:00.354Z,28.55
2022-10-31T01:49:52.733Z,25.75
2022-10-31T01:52:30.152Z,25.60
2022-10-31T01:55:06.100Z,29.58
2022-10-31T01:57:35.318Z,28.55
2022-10-31T02:00:07.477Z,27.25
2022-10-31T02:02:40.378Z,26.33
2022-10-31T02:05:11.575Z,32.53
2022-10-31T02:07:44.474Z,23.15
2022-10-31T02:10:11.435Z,28.77
2022-10-31T02:12:39.400Z,42.17
2022-10-31T02:15:07.017Z,35.70
2022-10-31T02:17:34.778Z,41.88
2022-10-31T02:20:17.026Z,33.22
2022-10-31T02:22:56.163Z,31.70
2022-10-31T02:26:14.575Z,32.00
2022-10-31T02:29:05.120Z,34.45
2022-10-31T02:31:49.795Z,35.88
2022-10-31T02:34:27.211Z,47.03
2022-10-31T02:37:02.967Z,28.48
2022-10-31T02:39:49.044Z,36.88
2022-10-31T02:42:50.020Z,34.95
2022-10-31T02:45:31.837Z,28.08
2022-10-31T02:48:04.227Z,29.70
2022-10-31T02:50:37.322Z,27.77
2022-10-31T02:53:04.791Z,28.30
2022-10-31T02:55:31.802Z,26.15
2022-10-31T02:58:09.925Z,26.05
2022-10-31T03:00:42.154Z,17.58
2022-10-31T03:03:24.473Z,21.67
2022-10-31T03:05:57.575Z,24.25
2022-10-31T03:08:41.556Z,26.35
2022-10-31T03:11:10.863Z,27.92
2022-10-31T03:14:13.867Z,25.45
2022-10-31T03:16:53.132Z,22.60
2022-10-31T03:19:34.670Z,39.47
2022-10-31T03:22:30.864Z,35.00
2022-10-31T03:25:01.071Z,38.97
2022-10-31T03:27:32.242Z,23.88
2022-10-31T03:30:03.209Z,33.05
2022-10-31T03:32:42.612Z,23.50
2022-10-31T03:35:11.256Z,34.90
2022-10-31T03:37:41.680Z,32.90
2022-10-31T03:40:15.813Z,24.25
2022-10-31T03:42:47.714Z,34.33
2022-10-31T03:45:24.748Z,37.53
2022-10-31T03:47:54.102Z,36.15
2022-10-31T03:50:22.792Z,53.63
2022-10-31T03:53:07.301Z,47.30
2022-10-31T03:55:43.888Z,35.75
2022-10-31T04:00:51.021Z,39.75
2022-10-31T04:03:28.801Z,54.70
2022-10-31T04:06:03.091Z,64.43
2022-10-31T04:08:34.687Z,80.63
2022-10-31T04:11:05.962Z,95.22
2022-10-31T04:13:35.609Z,89.82
2022-10-31T04:16:12.634Z,79.60
2022-10-31T04:21:10.773Z,74.97
2022-10-31T04:23:37.779Z,84.13
2022-10-31T04:26:14.487Z,83.47
2022-10-31T04:28:44.226Z,77.75
2022-10-31T04:31:13.575Z,78.60
2022-10-31T04:33:41.434Z,84.00
2022-10-31T04:36:08.604Z,75.13
2022-10-31T04:38:36.222Z,70.03
2022-10-31T04:41:08.890Z,79.63
2022-10-31T04:43:58.956Z,61.15
2022-10-31T04:46:27.804Z,72.25
2022-10-31T04:48:56.881Z,61.95
2022-10-31T04:51:24.703Z,55.13
2022-10-31T04:53:52.252Z,64.75
2022-10-31T04:56:41.937Z,50.17
2022-10-31T04:59:17.172Z,49.75
2022-10-31T05:01:50.072Z,38.83
2022-10-31T05:04:22.250Z,47.05
2022-10-31T05:06:49.303Z,50.40
2022-10-31T05:09:16.283Z,39.40
2022-10-31T05:11:43.878Z,48.58
2022-10-31T05:14:29.276Z,44.40
2022-10-31T05:17:16.171Z,51.05
2022-10-31T05:20:06.312Z,52.00
2022-10-31T05:23:05.378Z,53.60
2022-10-31T05:25:33.449Z,43.33
2022-10-31T05:28:04.661Z,51.78
2022-10-31T05:30:33.058Z,51.33
2022-10-31T05:33:01.038Z,57.17
2022-10-31T05:35:46.782Z,65.55
2022-10-31T05:38:35.040Z,65.28
2022-10-31T05:41:11.079Z,42.92
2022-10-31T05:43:42.576Z,58.15
2022-10-31T05:46:10.284Z,73.93
2022-10-31T05:51:51.598Z,63.57
2022-10-31T05:54:20.227Z,47.65
2022-10-31T05:56:47.211Z,39.75
2022-10-31T05:59:14.162Z,47.90
2022-10-31T06:01:41.382Z,37.22
2022-10-31T06:04:22.212Z,49.67
2022-10-31T06:06:49.237Z,46.95
2022-10-31T06:09:17.000Z,52.75
2022-10-31T06:11:45.042Z,50.78
2022-10-31T06:14:32.125Z,37.05
2022-10-31T06:16:59.210Z,37.58
2022-10-31T06:20:01.415Z,68.78
2022-10-31T06:22:30.568Z,86.07
2022-10-31T06:24:57.603Z,133.45
2022-10-31T06:27:34.913Z,109.13
2022-10-31T06:30:09.485Z,120.03
2022-10-31T06:32:37.477Z,90.20
2022-10-31T06:35:04.836Z,76.30
2022-10-31T06:37:33.773Z,52.35
2022-10-31T06:40:08.400Z,41.13
2022-10-31T06:43:01.513Z,35.60
2022-10-31T06:45:29.747Z,39.90
2022-10-31T06:48:18.381Z,38.53
2022-10-31T06:51:04.316Z,49.90
2022-10-31T06:53:32.390Z,37.42
2022-10-31T06:56:01.777Z,35.83
2022-10-31T06:58:30.815Z,36.90
2022-10-31T07:01:01.495Z,35.58
2022-10-31T07:03:28.537Z,26.05
2022-10-31T07:05:58.585Z,24.25
2022-10-31T07:08:26.258Z,27.48
2022-10-31T07:10:55.637Z,21.33
2022-10-31T07:13:26.641Z,23.27
2022-10-31T07:16:14.930Z,22.98
2022-10-31T07:18:44.573Z,32.38
2022-10-31T07:21:13.188Z,17.90
2022-10-31T07:23:41.810Z,30.10
2022-10-31T07:26:28.989Z,23.42
2022-10-31T07:28:56.007Z,26.05
2022-10-31T07:31:25.567Z,28.88
2022-10-31T07:33:55.181Z,25.20
2022-10-31T07:36:28.166Z,23.55
2022-10-31T07:39:00.101Z,22.67
2022-10-31T07:41:27.118Z,16.63
2022-10-31T07:43:54.573Z,22.52
2022-10-31T07:46:30.313Z,22.20
2022-10-31T07:49:35.590Z,29.43
2022-10-31T07:52:21.140Z,20.60
2022-10-31T07:57:37.870Z,15.27
2022-10-31T08:00:07.078Z,23.65
2022-10-31T08:02:41.839Z,23.40
2022-10-31T08:05:45.889Z,18.33
2022-10-31T08:08:38.998Z,17.75
2022-10-31T08:11:08.184Z,21.60
2022-10-31T08:13:35.764Z,23.02
2022-10-31T08:16:05.346Z,21.92
2022-10-31T08:18:38.666Z,14.60
2022-10-31T08:21:08.816Z,17.55
2022-10-31T08:23:35.975Z,18.25
2022-10-31T08:26:03.502Z,18.58
2022-10-31T08:28:31.459Z,17.48
2022-10-31T08:30:59.648Z,21.92
2022-10-31T08:33:38.284Z,19.02
2022-10-31T08:36:22.890Z,18.92
2022-10-31T08:39:09.657Z,23.15
2022-10-31T08:41:36.647Z,19.33
2022-10-31T08:44:03.901Z,17.95
2022-10-31T08:46:32.756Z,19.45
2022-10-31T08:48:59.794Z,23.70
2022-10-31T08:51:26.943Z,16.58
2022-10-31T08:53:55.877Z,15.13
2022-10-31T08:56:41.220Z,16.73
2022-10-31T08:59:31.149Z,16.67
2022-10-31T09:02:18.346Z,17.27
2022-10-31T09:04:45.323Z,16.65
2022-10-31T09:07:27.385Z,20.10
2022-10-31T09:09:56.811Z,13.55
2022-10-31T09:12:25.091Z,17.92
2022-10-31T09:15:24.732Z,28.20
2022-10-31T09:17:57.858Z,16.30
2022-10-31T09:20:32.327Z,14.48
2022-10-31T09:23:05.155Z,16.25
2022-10-31T09:25:35.976Z,16.88
2022-10-31T09:28:24.592Z,14.50
2022-10-31T09:30:54.616Z,13.10
2022-10-31T09:33:43.199Z,14.55
2022-10-31T09:36:28.496Z,19.75
2022-10-31T09:38:56.132Z,16.20
2022-10-31T09:41:35.061Z,20.83
2022-10-31T09:44:10.780Z,13.63
2022-10-31T09:46:48.790Z,12.20
2022-10-31T09:49:42.224Z,14.82
2022-10-31T09:52:24.515Z,11.02
2022-10-31T09:54:51.319Z,11.25
2022-10-31T09:57:25.585Z,11.57
2022-10-31T09:59:53.061Z,14.95
2022-10-31T10:02:33.855Z,12.57
2022-10-31T10:05:05.060Z,16.58
2022-10-31T10:07:57.912Z,24.40
2022-10-31T10:10:59.880Z,12.20
2022-10-31T10:14:24.905Z,13.57
2022-10-31T10:16:58.892Z,11.38
2022-10-31T10:19:25.756Z,18.98
2022-10-31T10:22:09.157Z,16.73
2022-10-31T10:24:44.997Z,14.70
2022-10-31T10:27:35.128Z,13.52
2022-10-31T10:30:18.634Z,9.98
2022-10-31T10:32:52.199Z,13.32
2022-10-31T10:35:48.600Z,12.73
2022-10-31T10:38:49.146Z,13.30
2022-10-31T10:41:21.901Z,17.55
2022-10-31T10:43:51.418Z,12.50
2022-10-31T10:46:43.563Z,17.20
2022-10-31T10:49:22.316Z,15.07
2022-10-31T10:52:07.525Z,13.18
2022-10-31T10:54:58.178Z,8.73
2022-10-31T10:57:47.753Z,13.95
2022-10-31T11:00:22.711Z,12.27
2022-10-31T11:02:50.227Z,18.70
2022-10-31T11:05:35.534Z,15.85
2022-10-31T11:08:03.064Z,18.23
2022-10-31T11:10:30.494Z,14.38
2022-10-31T11:13:16.863Z,15.18
2022-10-31T11:16:09.947Z,13.13
2022-10-31T11:18:43.855Z,17.55
2022-10-31T11:21:29.422Z,18.00
2022-10-31T11:24:11.297Z,17.35
2022-10-31T11:26:40.507Z,19.92
2022-10-31T11:29:26.043Z,12.15
2022-10-31T11:31:58.110Z,25.40
2022-10-31T11:34:36.191Z,20.17
2022-10-31T11:37:19.411Z,10.95
2022-10-31T11:39:54.489Z,8.35
2022-10-31T11:42:28.137Z,13.98
2022-10-31T11:44:56.861Z,19.70
2022-10-31T11:47:29.680Z,16.38
2022-10-31T11:49:58.258Z,15.95
2022-10-31T11:52:29.692Z,13.98
2022-10-31T11:55:02.150Z,14.30
2022-10-31T11:57:34.597Z,16.05
2022-10-31T12:00:06.964Z,13.18
2022-10-31T12:02:39.486Z,12.05
2022-10-31T12:05:19.242Z,16.10
2022-10-31T12:07:46.261Z,16.55
2022-10-31T12:10:14.856Z,22.52
2022-10-31T12:12:50.740Z,13.57
2022-10-31T12:15:37.820Z,14.80
2022-10-31T12:18:32.864Z,17.83
2022-10-31T12:23:47.438Z,19.20
2022-10-31T12:26:38.690Z,14.57
2022-10-31T12:29:23.691Z,12.05
2022-10-31T12:32:14.916Z,19.70
2022-10-31T12:35:01.003Z,20.65
2022-10-31T12:38:14.334Z,6.93
2022-10-31T12:41:16.730Z,8.60
2022-10-31T12:44:06.538Z,9.75
2022-10-31T12:47:11.672Z,9.90
2022-10-31T12:49:47.548Z,14.10
2022-10-31T12:52:26.895Z,15.73
2022-10-31T12:55:04.628Z,13.95
2022-10-31T12:57:39.371Z,9.45
2022-10-31T13:00:17.112Z,16.10
2022-10-31T13:02:49.915Z,18.90
2022-10-31T13:05:37.722Z,18.25
2022-10-31T13:08:10.011Z,14.90
2022-10-31T13:11:15.753Z,16.05
2022-10-31T13:13:53.150Z,21.58
2022-10-31T13:16:24.204Z,9.73
2022-10-31T13:19:00.096Z,16.90
2022-10-31T13:21:40.605Z,15.60
2022-10-31T13:24:14.948Z,21.80
2022-10-31T13:29:32.593Z,13.18
2022-10-31T13:32:05.572Z,13.50
2022-10-31T13:34:43.498Z,12.45
2022-10-31T13:37:22.488Z,12.45
2022-10-31T13:40:16.567Z,16.67
2022-10-31T13:43:20.821Z,11.43
2022-10-31T13:45:55.529Z,8.70
2022-10-31T13:48:28.502Z,16.02
2022-10-31T13:51:05.058Z,16.75
2022-10-31T13:53:46.999Z,11.52
2022-10-31T13:56:23.328Z,13.52
2022-10-31T13:59:05.078Z,10.00
2022-10-31T14:01:34.227Z,11.95
2022-10-31T14:04:25.316Z,16.13
2022-10-31T14:06:52.553Z,13.40
2022-10-31T14:09:35.265Z,14.10
2022-10-31T14:12:14.233Z,18.83
2022-10-31T14:14:49.195Z,22.08
2022-10-31T14:17:28.680Z,16.25
2022-10-31T14:20:02.466Z,5.85
2022-10-31T14:22:37.436Z,19.70
2022-10-31T14:25:26.181Z,14.52
2022-10-31T14:27:53.768Z,14.35
2022-10-31T14:30:26.664Z,18.95
2022-10-31T14:32:56.450Z,11.15
2022-10-31T14:35:28.827Z,17.83
2022-10-31T14:38:08.915Z,16.83
2022-10-31T14:41:28.096Z,22.13
2022-10-31T14:44:00.376Z,22.08
2022-10-31T14:46:37.512Z,31.83
2022-10-31T14:49:29.046Z,20.23
2022-10-31T14:51:56.786Z,22.10
2022-10-31T14:54:33.529Z,20.85
2022-10-31T14:57:13.865Z,23.85
2022-10-31T14:59:46.265Z,18.10
2022-10-31T15:02:18.974Z,32.85
2022-10-31T15:04:48.744Z,22.35
2022-10-31T15:07:27.261Z,19.95
2022-10-31T15:10:01.388Z,20.10
2022-10-31T15:12:31.269Z,20.65
2022-10-31T15:14:59.867Z,17.85
2022-10-31T15:17:27.434Z,14.20
2022-10-31T15:19:54.711Z,22.33
2022-10-31T15:22:25.098Z,19.77
2022-10-31T15:24:57.486Z,13.50
2022-10-31T15:27:25.825Z,26.60
2022-10-31T15:29:55.953Z,27.25
2022-10-31T15:32:25.591Z,29.83
2022-10-31T15:34:54.132Z,24.58
2022-10-31T15:37:23.411Z,26.40
2022-10-31T15:39:50.663Z,23.95
2022-10-31T15:42:35.216Z,34.22
2022-10-31T15:45:13.980Z,25.53
2022-10-31T15:47:50.365Z,15.90
2022-10-31T15:50:51.498Z,11.38
2022-10-31T15:53:22.495Z,17.85
2022-10-31T15:55:57.045Z,11.55
2022-10-31T15:58:25.707Z,14.95
2022-10-31T16:01:19.882Z,15.02
2022-10-31T16:03:59.701Z,31.02
2022-10-31T16:06:26.831Z,10.13
2022-10-31T16:08:53.798Z,11.25
2022-10-31T16:11:23.900Z,17.48
2022-10-31T16:14:12.180Z,12.73
2022-10-31T16:16:45.643Z,21.23
2022-10-31T16:19:21.461Z,22.67
2022-10-31T16:21:53.403Z,27.98
2022-10-31T16:24:32.912Z,13.25
2022-10-31T16:27:16.678Z,26.55
2022-10-31T16:29:45.380Z,21.33
2022-10-31T16:32:28.664Z,16.83
2022-10-31T16:35:11.533Z,23.27
2022-10-31T16:37:39.439Z,24.70
2022-10-31T16:40:06.733Z,18.20
2022-10-31T16:42:33.814Z,13.23
2022-10-31T16:45:01.079Z,23.13
2022-10-31T16:47:28.671Z,14.93
2022-10-31T16:49:55.739Z,13.98
2022-10-31T16:52:22.562Z,17.08
2022-10-31T16:54:49.739Z,23.35
2022-10-31T16:57:21.566Z,26.40
2022-10-31T16:59:52.725Z,22.15
2022-10-31T17:02:19.861Z,21.90
2022-10-31T17:04:48.533Z,22.63
2022-10-31T17:07:17.788Z,27.02
2022-10-31T17:09:45.778Z,22.80
2022-10-31T17:12:20.044Z,19.70
2022-10-31T17:14:51.771Z,19.52
2022-10-31T17:17:18.952Z,22.38
2022-10-31T17:19:46.131Z,23.52
2022-10-31T17:22:14.386Z,19.42
2022-10-31T17:24:41.520Z,24.98
2022-10-31T17:27:08.675Z,15.02
2022-10-31T17:29:36.298Z,14.63
2022-10-31T17:32:04.372Z,21.50
2022-10-31T17:34:31.342Z,17.23
2022-10-31T17:36:58.272Z,19.45
2022-10-31T17:39:25.317Z,21.90
2022-10-31T17:41:52.989Z,23.17
2022-10-31T17:44:20.235Z,17.35
2022-10-31T17:46:47.161Z,18.45
2022-10-31T17:49:14.263Z,22.73
2022-10-31T17:51:41.217Z,19.45
2022-10-31T17:54:09.320Z,14.32
2022-10-31T17:56:36.360Z,17.33
2022-10-31T17:59:03.576Z,10.18
2022-10-31T18:01:30.657Z,25.13
2022-10-31T18:03:57.887Z,19.88
2022-10-31T18:06:24.889Z,14.02
2022-10-31T18:08:51.906Z,21.80
2022-10-31T18:11:21.723Z,20.80
2022-10-31T18:13:54.293Z,19.48
2022-10-31T18:16:21.671Z,23.00
2022-10-31T18:19:02.204Z,25.40
2022-10-31T18:21:30.224Z,31.88
2022-10-31T18:23:59.404Z,29.25
2022-10-31T18:26:27.929Z,21.40
2022-10-31T18:28:55.816Z,7.28
2022-10-31T18:31:22.976Z,16.55
2022-10-31T18:33:54.543Z,18.83
2022-10-31T18:36:22.421Z,23.05
2022-10-31T18:38:49.466Z,15.07
2022-10-31T18:41:16.755Z,29.55
2022-10-31T18:43:44.026Z,26.30
2022-10-31T18:46:14.472Z,16.88
2022-10-31T18:48:43.232Z,11.70
2022-10-31T18:51:13.488Z,11.63
2022-10-31T18:53:40.947Z,26.38
2022-10-31T18:56:09.645Z,17.35
2022-10-31T18:58:37.244Z,10.18
2022-10-31T19:01:08.885Z,7.90
2022-10-31T19:03:36.321Z,6.55
2022-10-31T19:06:03.663Z,12.95
2022-10-31T19:08:30.984Z,11.50
2022-10-31T19:11:18.249Z,15.15
2022-10-31T19:13:45.366Z,9.55
2022-10-31T19:16:14.788Z,6.57
2022-10-31T19:18:42.948Z,6.82
2022-10-31T19:21:18.215Z,6.47
2022-10-31T19:23:46.721Z,9.65
2022-10-31T19:26:14.457Z,16.80
2022-10-31T19:28:42.141Z,9.60
2022-10-31T19:31:10.626Z,16.70
2022-10-31T19:33:37.700Z,24.55
2022-10-31T19:36:10.888Z,14.82
2022-10-31T19:38:40.019Z,14.35
2022-10-31T19:41:11.632Z,15.18
2022-10-31T19:43:38.642Z,11.90
2022-10-31T19:46:07.070Z,17.33
2022-10-31T19:48:37.367Z,14.25
2022-10-31T19:51:07.199Z,12.13
2022-10-31T19:53:34.938Z,9.75
2022-10-31T19:56:02.123Z,11.35
2022-10-31T19:58:29.542Z,11.10
2022-10-31T20:00:56.547Z,9.57
2022-10-31T20:03:23.738Z,7.57
2022-10-31T20:05:51.053Z,10.27
2022-10-31T20:08:20.271Z,13.43
2022-10-31T20:11:16.867Z,20.98
2022-10-31T20:13:44.740Z,12.20
2022-10-31T20:16:13.414Z,16.92
2022-10-31T20:18:40.955Z,15.48
2022-10-31T20:21:11.183Z,13.10
2022-10-31T20:23:39.306Z,13.88
2022-10-31T20:26:08.651Z,14.27
2022-10-31T20:28:39.956Z,19.27
2022-10-31T20:31:12.936Z,18.58
2022-10-31T20:33:40.409Z,22.90
2022-10-31T20:36:08.687Z,20.83
2022-10-31T20:38:40.514Z,18.20
2022-10-31T20:41:09.778Z,26.48
2022-10-31T20:43:36.862Z,16.63
2022-10-31T20:46:21.675Z,25.63
2022-10-31T20:48:49.164Z,21.92
2022-10-31T20:51:21.128Z,23.08
2022-10-31T20:53:51.790Z,22.60
2022-10-31T20:56:20.889Z,23.40
2022-10-31T20:58:49.016Z,37.45
2022-10-31T21:01:17.651Z,24.08
2022-10-31T21:03:45.842Z,21.15
2022-10-31T21:06:13.967Z,18.90
2022-10-31T21:08:41.798Z,17.85
2022-10-31T21:11:11.406Z,21.23
2022-10-31T21:13:40.922Z,26.75
2022-10-31T21:16:13.457Z,24.90
2022-10-31T21:18:42.057Z,25.17
2022-10-31T21:21:15.915Z,21.38
2022-10-31T21:23:44.104Z,18.58
2022-10-31T21:26:21.176Z,26.25
2022-10-31T21:28:49.700Z,19.75
2022-10-31T21:31:17.915Z,17.75
2022-10-31T21:33:46.363Z,17.40
2022-10-31T21:36:14.125Z,21.58
2022-10-31T21:38:41.632Z,20.40
2022-10-31T21:41:11.170Z,20.88
2022-10-31T21:43:39.648Z,18.13
2022-10-31T21:46:12.094Z,22.88
2022-10-31T21:48:42.281Z,17.42
2022-10-31T21:51:15.038Z,14.18
2022-10-31T21:54:00.658Z,14.18
2022-10-31T21:58:55.950Z,19.25
2022-10-31T22:01:24.831Z,17.23
2022-10-31T22:03:52.277Z,17.38
2022-10-31T22:06:19.150Z,13.35
2022-10-31T22:08:46.467Z,21.10
2022-10-31T22:11:15.712Z,17.20
2022-10-31T22:13:44.956Z,19.77
2022-10-31T22:16:23.378Z,20.70
2022-10-31T22:18:55.895Z,19.50
2022-10-31T22:21:26.371Z,15.45
2022-10-31T22:23:55.467Z,13.98
2022-10-31T22:26:22.846Z,13.32
2022-10-31T22:29:02.475Z,17.08
2022-10-31T22:31:31.810Z,31.55
2022-10-31T22:33:59.363Z,24.77
2022-10-31T22:36:30.775Z,13.77
2022-10-31T22:38:58.837Z,15.85
2022-10-31T22:41:30.780Z,14.68
2022-10-31T22:43:58.455Z,23.17
2022-10-31T22:46:30.498Z,14.43
2022-10-31T22:49:00.586Z,13.27
2022-10-31T22:51:33.701Z,24.48
2022-10-31T22:54:01.250Z,18.92
2022-10-31T22:56:31.109Z,18.30
2022-10-31T22:58:59.171Z,16.40
2022-10-31T23:01:28.691Z,15.90
2022-10-31T23:03:56.122Z,15.93
2022-10-31T23:06:25.887Z,16.27
2022-10-31T23:08:53.403Z,18.40
2022-10-31T23:11:33.832Z,13.02
2022-10-31T23:14:15.951Z,12.55
2022-10-31T23:16:47.509Z,16.60
2022-10-31T23:19:19.563Z,14.38
2022-10-31T23:21:55.069Z,16.65
2022-10-31T23:24:42.842Z,15.82
2022-10-31T23:27:12.746Z,13.27
2022-10-31T23:29:47.075Z,16.38
2022-10-31T23:32:27.210Z,14.10
2022-10-31T23:34:56.588Z,17.55
2022-10-31T23:37:25.884Z,19.88
2022-10-31T23:39:53.706Z,14.02
2022-10-31T23:42:20.999Z,19.08
2022-10-31T23:44:48.380Z,16.85
2022-10-31T23:47:16.120Z,13.88
2022-10-31T23:49:43.496Z,26.95
2022-10-31T23:52:11.253Z,16.65
2022-10-31T23:54:38.477Z,14.35
2022-10-31T23:57:06.067Z,15.07
2022-10-31T23:59:33.451Z,25.75
